createdAt,value
2018-12-20T00:00:15.355Z,90.28
2018-12-20T00:05:23.811Z,90.31
2018-12-20T00:10:30.982Z,90.42
2018-12-20T00:15:39.699Z,90.81
2018-12-20T00:20:49.454Z,90.81
2018-12-20T00:25:56.995Z,90.26
2018-12-20T00:31:03.498Z,90.40
2018-12-20T00:36:10.339Z,90.41
2018-12-20T00:41:17.280Z,90.47
2018-12-20T00:46:26.383Z,90.59
2018-12-20T00:51:36.104Z,90.75
2018-12-20T00:56:45.873Z,90.85
2018-12-20T01:01:54.550Z,90.99
2018-12-20T01:07:03.665Z,90.33
2018-12-20T01:12:14.480Z,89.80
2018-12-20T01:17:21.975Z,90.06
2018-12-20T01:22:30.243Z,90.12
2018-12-20T01:27:38.181Z,90.18
2018-12-20T01:32:44.700Z,89.94
2018-12-20T01:37:51.625Z,89.80
2018-12-20T01:42:57.959Z,89.68
2018-12-20T01:48:11.098Z,89.48
2018-12-20T01:53:19.372Z,90.08
2018-12-20T01:58:30.171Z,90.28
2018-12-20T02:03:38.180Z,90.32
2018-12-20T02:08:51.799Z,89.85
2018-12-20T02:13:58.133Z,89.58
2018-12-20T02:19:09.242Z,89.51
2018-12-20T02:24:20.062Z,89.25
2018-12-20T02:29:30.576Z,89.13
2018-12-20T02:34:41.181Z,88.99
2018-12-20T02:39:50.205Z,88.90
2018-12-20T02:44:59.904Z,88.90
2018-12-20T02:50:07.142Z,88.69
2018-12-20T02:55:15.992Z,88.62
2018-12-20T03:00:24.168Z,88.85
2018-12-20T03:05:33.790Z,88.86
2018-12-20T03:10:41.730Z,88.97
2018-12-20T03:15:53.452Z,88.92
2018-12-20T03:21:04.965Z,88.83
2018-12-20T03:26:27.864Z,88.78
2018-12-20T03:31:31.441Z,89.02
2018-12-20T03:36:39.924Z,89.21
2018-12-20T03:41:47.515Z,89.25
2018-12-20T03:46:59.328Z,89.86
2018-12-20T03:52:14.246Z,89.97
2018-12-20T03:57:21.441Z,90.02
2018-12-20T04:02:28.451Z,90.47
2018-12-20T04:07:38.243Z,90.81
2018-12-20T04:12:46.049Z,90.91
2018-12-20T04:17:54.215Z,90.81
2018-12-20T04:23:00.232Z,90.80
2018-12-20T04:28:08.227Z,90.71
2018-12-20T04:33:15.385Z,90.80
2018-12-20T04:38:23.102Z,90.71
2018-12-20T04:43:30.733Z,90.91
2018-12-20T04:48:40.771Z,90.90
2018-12-20T04:53:51.166Z,90.74
2018-12-20T04:59:02.596Z,90.56
2018-12-20T05:04:11.781Z,90.48
2018-12-20T05:09:25.347Z,90.27
2018-12-20T05:15:40.420Z,89.95
2018-12-20T05:20:47.424Z,89.75
2018-12-20T05:25:54.823Z,89.68
2018-12-20T05:31:04.304Z,90.10
2018-12-20T05:36:11.710Z,90.02
2018-12-20T05:41:17.937Z,89.92
2018-12-20T05:46:25.553Z,89.98
2018-12-20T05:51:36.956Z,89.83
2018-12-20T05:56:43.550Z,90.02
2018-12-20T06:01:51.064Z,90.00
2018-12-20T06:07:02.849Z,90.10
2018-12-20T06:12:10.225Z,89.87
2018-12-20T06:17:19.432Z,90.03
2018-12-20T06:22:28.996Z,90.12
2018-12-20T06:27:36.841Z,90.05
2018-12-20T06:32:44.952Z,89.94
2018-12-20T06:37:53.354Z,89.75
2018-12-20T06:42:58.607Z,89.79
2018-12-20T06:48:07.908Z,89.68
2018-12-20T06:53:18.383Z,89.63
2018-12-20T06:58:24.788Z,89.92
2018-12-20T07:03:35.041Z,90.25
2018-12-20T07:08:42.655Z,90.77
2018-12-20T07:13:51.140Z,90.75
2018-12-20T07:18:59.210Z,90.79
2018-12-20T07:24:08.927Z,90.80
2018-12-20T07:29:15.806Z,90.60
2018-12-20T07:34:22.984Z,90.41
2018-12-20T07:39:33.470Z,90.47
2018-12-20T07:44:49.733Z,90.08
2018-12-20T07:50:02.992Z,89.71
2018-12-20T07:55:09.738Z,89.35
2018-12-20T08:00:16.251Z,89.50
2018-12-20T08:05:25.485Z,89.33
2018-12-20T08:10:32.535Z,89.06
2018-12-20T08:15:43.044Z,88.81
2018-12-20T08:20:52.858Z,88.42
2018-12-20T08:25:59.588Z,88.36
2018-12-20T08:31:10.975Z,88.01
2018-12-20T08:36:20.867Z,87.92
2018-12-20T08:41:31.038Z,87.78
2018-12-20T08:46:41.226Z,87.73
2018-12-20T08:51:53.727Z,87.78
2018-12-20T08:57:05.728Z,87.76
2018-12-20T09:02:13.163Z,88.07
2018-12-20T09:07:21.289Z,88.87
2018-12-20T09:12:31.277Z,89.78
2018-12-20T09:17:37.807Z,89.69
2018-12-20T09:22:48.288Z,89.17
2018-12-20T09:27:56.908Z,88.60
2018-12-20T09:33:05.789Z,88.31
2018-12-20T09:38:14.081Z,87.34
2018-12-20T09:43:21.481Z,87.05
2018-12-20T09:48:32.739Z,86.59
2018-12-20T09:53:41.728Z,86.52
2018-12-20T09:58:49.619Z,85.95
2018-12-20T10:03:58.394Z,85.75
2018-12-20T10:09:07.326Z,85.60
2018-12-20T10:14:17.249Z,84.91
2018-12-20T10:19:25.841Z,84.78
2018-12-20T10:24:34.815Z,84.83
2018-12-20T10:29:43.587Z,84.77
2018-12-20T10:34:52.893Z,84.66
2018-12-20T10:40:00.229Z,85.04
2018-12-20T10:45:11.171Z,85.55
2018-12-20T10:50:21.084Z,86.53
2018-12-20T10:55:27.983Z,87.33
2018-12-20T11:00:54.354Z,87.86
2018-12-20T11:06:22.108Z,88.28
2018-12-20T11:11:46.488Z,88.59
2018-12-20T11:16:53.364Z,88.69
2018-12-20T11:22:01.198Z,88.32
2018-12-20T11:27:08.563Z,88.12
2018-12-20T11:32:20.325Z,87.74
2018-12-20T11:37:27.820Z,87.48
2018-12-20T11:42:35.522Z,86.69
2018-12-20T11:47:46.088Z,86.51
2018-12-20T11:52:53.476Z,86.20
2018-12-20T11:58:02.406Z,86.10
2018-12-20T12:03:11.505Z,85.42
2018-12-20T12:08:21.440Z,84.91
2018-12-20T12:13:28.772Z,85.26
2018-12-20T12:18:41.470Z,85.53
2018-12-20T12:23:47.929Z,85.24
2018-12-20T12:28:58.961Z,86.98
2018-12-20T12:34:08.612Z,87.37
2018-12-20T12:39:20.160Z,87.23
2018-12-20T12:44:30.158Z,87.34
2018-12-20T12:49:38.739Z,87.26
2018-12-20T12:54:48.292Z,88.89
2018-12-20T12:59:55.539Z,90.71
2018-12-20T13:05:06.952Z,91.44
2018-12-20T13:10:17.600Z,92.59
2018-12-20T13:15:26.478Z,92.32
2018-12-20T13:20:38.819Z,92.05
2018-12-20T13:25:47.811Z,92.37
2018-12-20T13:30:56.125Z,92.64
2018-12-20T13:36:06.591Z,92.64
2018-12-20T13:41:15.650Z,92.42
2018-12-20T13:46:26.144Z,92.49
2018-12-20T13:51:33.727Z,92.21
2018-12-20T13:56:41.322Z,92.23
2018-12-20T14:01:49.220Z,92.31
2018-12-20T14:06:57.538Z,91.71
2018-12-20T14:12:07.424Z,91.81
2018-12-20T14:17:14.688Z,91.55
2018-12-20T14:22:24.287Z,91.06
2018-12-20T14:27:33.594Z,90.72
2018-12-20T14:32:41.794Z,90.72
2018-12-20T14:37:54.496Z,90.80
2018-12-20T14:43:01.691Z,90.64
2018-12-20T14:48:09.716Z,91.13
2018-12-20T14:53:17.015Z,91.07
2018-12-20T14:58:24.868Z,90.94
2018-12-20T15:03:35.519Z,91.32
2018-12-20T15:08:46.722Z,91.08
2018-12-20T15:13:55.974Z,91.41
2018-12-20T15:19:03.969Z,90.52
2018-12-20T15:24:14.375Z,89.93
2018-12-20T15:29:20.764Z,90.46
2018-12-20T15:34:28.779Z,90.65
2018-12-20T15:39:37.593Z,91.57
2018-12-20T15:44:47.146Z,90.72
2018-12-20T15:50:02.979Z,90.80
2018-12-20T15:55:10.538Z,91.45
2018-12-20T16:00:15.780Z,91.00
2018-12-20T16:05:24.686Z,90.50
2018-12-20T16:10:36.535Z,90.40
2018-12-20T16:15:45.328Z,90.44
2018-12-20T16:20:54.948Z,90.47
2018-12-20T16:26:04.789Z,90.06
2018-12-20T16:31:13.733Z,89.55
2018-12-20T16:36:21.183Z,89.56
2018-12-20T16:41:30.039Z,89.74
2018-12-20T16:46:36.035Z,89.46
2018-12-20T16:51:46.309Z,89.62
2018-12-20T16:56:58.406Z,89.62
2018-12-20T17:02:07.178Z,89.30
2018-12-20T17:07:15.078Z,89.29
2018-12-20T17:12:20.532Z,89.34
2018-12-20T17:17:36.259Z,88.79
2018-12-20T17:22:45.868Z,89.04
2018-12-20T17:27:55.768Z,89.02
2018-12-20T17:33:04.488Z,88.77
2018-12-20T17:38:13.886Z,88.73
2018-12-20T17:43:25.858Z,88.51
2018-12-20T17:48:37.710Z,88.69
2018-12-20T17:53:45.739Z,88.55
2018-12-20T17:58:59.300Z,88.61
2018-12-20T18:04:06.803Z,88.32
2018-12-20T18:09:15.559Z,88.62
2018-12-20T18:14:24.367Z,88.62
2018-12-20T18:19:39.044Z,88.64
2018-12-20T18:24:44.093Z,88.79
2018-12-20T18:29:54.016Z,88.77
2018-12-20T18:35:06.305Z,88.69
2018-12-20T18:40:15.609Z,88.61
2018-12-20T18:45:26.193Z,88.97
2018-12-20T18:50:33.082Z,88.82
2018-12-20T18:55:42.486Z,89.11
2018-12-20T19:00:49.676Z,88.57
2018-12-20T19:05:58.777Z,88.44
2018-12-20T19:11:06.849Z,88.33
2018-12-20T19:16:16.720Z,87.68
2018-12-20T19:21:23.878Z,87.92
2018-12-20T19:26:32.648Z,87.65
2018-12-20T19:31:40.249Z,87.68
2018-12-20T19:36:46.285Z,87.82
2018-12-20T19:41:55.952Z,87.93
2018-12-20T19:47:08.249Z,87.78
2018-12-20T19:52:15.431Z,87.72
2018-12-20T19:57:21.892Z,87.59
2018-12-20T20:02:34.275Z,87.30
2018-12-20T20:07:42.240Z,87.69
2018-12-20T20:12:51.849Z,87.29
2018-12-20T20:18:06.576Z,87.21
2018-12-20T20:23:15.309Z,87.09
2018-12-20T20:28:27.392Z,87.20
2018-12-20T20:33:36.527Z,86.88
2018-12-20T20:38:43.998Z,86.78
2018-12-20T20:43:55.558Z,86.75
2018-12-20T20:49:24.821Z,86.80
2018-12-20T20:54:31.719Z,86.83
2018-12-20T20:59:50.667Z,86.56
2018-12-20T21:04:50.177Z,86.57
2018-12-20T21:09:58.469Z,86.26
2018-12-20T21:15:06.434Z,86.59
2018-12-20T21:20:13.852Z,86.55
2018-12-20T21:25:22.087Z,86.74
2018-12-20T21:30:28.625Z,86.83
2018-12-20T21:35:43.583Z,86.92
2018-12-20T21:40:54.222Z,87.20
2018-12-20T21:46:02.178Z,87.64
2018-12-20T21:51:11.785Z,87.88
2018-12-20T21:56:24.941Z,88.17
2018-12-20T22:01:37.769Z,89.20
2018-12-20T22:06:46.840Z,90.86
2018-12-20T22:11:55.114Z,92.49
2018-12-20T22:17:01.827Z,94.22
2018-12-20T22:22:10.514Z,94.99
2018-12-20T22:27:20.742Z,95.09
2018-12-20T22:32:30.335Z,95.32
2018-12-20T22:37:38.622Z,95.30
2018-12-20T22:42:46.914Z,95.09
2018-12-20T22:47:54.996Z,95.10
2018-12-20T22:53:04.081Z,95.06
2018-12-20T22:58:11.582Z,94.90
2018-12-20T23:03:23.967Z,94.64
2018-12-20T23:08:33.069Z,93.95
2018-12-20T23:13:42.504Z,94.37
2018-12-20T23:18:50.567Z,94.70
2018-12-20T23:23:57.806Z,95.11
2018-12-20T23:29:09.005Z,95.06
2018-12-20T23:34:18.195Z,95.02
2018-12-20T23:39:30.291Z,94.97
2018-12-20T23:44:42.659Z,94.61
2018-12-20T23:49:51.816Z,94.20
2018-12-20T23:54:58.989Z,94.96
